sensor_id;sensor_type;location;lat;lon;timestamp;pressure;altitude;pressure_sealevel;temperature;humidity
50484;BME280;36409;52.168;20.878;2023-04-02T01:23:25;99558.62;;;5.31;77.65
50484;BME280;36409;52.168;20.878;2023-04-02T01:26:00;99549.13;;;5.30;78.44
50484;BME280;36409;52.168;20.878;2023-04-02T01:28:41;99551.72;;;5.30;78.02
50484;BME280;36409;52.168;20.878;2023-04-02T01:31:14;99562.91;;;5.30;78.68
50484;BME280;36409;52.168;20.878;2023-04-02T01:33:44;99559.48;;;5.30;78.34
50484;BME280;36409;52.168;20.878;2023-04-02T01:36:19;99566.40;;;5.29;78.07
50484;BME280;36409;52.168;20.878;2023-04-02T01:38:59;99569.85;;;5.28;77.70
50484;BME280;36409;52.168;20.878;2023-04-02T01:41:35;99569.85;;;5.28;78.21
50484;BME280;36409;52.168;20.878;2023-04-02T01:44:11;99575.89;;;5.27;78.13
50484;BME280;36409;52.168;20.878;2023-04-02T01:46:43;99577.60;;;5.26;77.81
50484;BME280;36409;52.168;20.878;2023-04-02T01:49:19;99580.19;;;5.26;78.15
50484;BME280;36409;52.168;20.878;2023-04-02T01:51:52;99584.52;;;5.26;78.29
50484;BME280;36409;52.168;20.878;2023-04-02T01:54:25;99590.55;;;5.26;78.20
50484;BME280;36409;52.168;20.878;2023-04-02T01:56:56;99587.95;;;5.26;77.84
50484;BME280;36409;52.168;20.878;2023-04-02T01:59:29;99588.83;;;5.27;78.60
50484;BME280;36409;52.168;20.878;2023-04-02T02:02:04;99592.28;;;5.26;78.25
50484;BME280;36409;52.168;20.878;2023-04-02T02:04:39;99595.73;;;5.25;77.87
50484;BME280;36409;52.168;20.878;2023-04-02T02:07:14;99594.02;;;5.24;77.76
50484;BME280;36409;52.168;20.878;2023-04-02T02:09:48;99595.75;;;5.23;78.25
50484;BME280;36409;52.168;20.878;2023-04-02T02:12:17;99607.80;;;5.24;77.89
50484;BME280;36409;52.168;20.878;2023-04-02T02:14:48;99607.81;;;5.23;77.84
50484;BME280;36409;52.168;20.878;2023-04-02T02:17:28;99609.55;;;5.21;77.95
50484;BME280;36409;52.168;20.878;2023-04-02T02:20:01;99611.27;;;5.19;77.70
50484;BME280;36409;52.168;20.878;2023-04-02T02:22:41;99611.29;;;5.17;78.01
50484;BME280;36409;52.168;20.878;2023-04-02T02:25:15;99619.07;;;5.16;77.83
50484;BME280;36409;52.168;20.878;2023-04-02T02:27:59;99619.05;;;5.14;77.68
50484;BME280;36409;52.168;20.878;2023-04-02T02:30:33;99611.31;;;5.13;77.97
50484;BME280;36409;52.168;20.878;2023-04-02T02:33:09;99619.91;;;5.13;77.43
50484;BME280;36409;52.168;20.878;2023-04-02T02:35:49;99619.09;;;5.11;77.66
50484;BME280;36409;52.168;20.878;2023-04-02T02:38:31;99624.25;;;5.09;78.24
50484;BME280;36409;52.168;20.878;2023-04-02T02:41:16;99627.70;;;5.08;78.17
50484;BME280;36409;52.168;20.878;2023-04-02T02:43:54;99630.30;;;5.07;78.18
50484;BME280;36409;52.168;20.878;2023-04-02T02:46:25;99625.13;;;5.07;77.40
50484;BME280;36409;52.168;20.878;2023-04-02T02:48:56;99629.45;;;5.06;77.62
50484;BME280;36409;52.168;20.878;2023-04-02T02:51:39;99636.34;;;5.06;78.15
50484;BME280;36409;52.168;20.878;2023-04-02T02:54:13;99638.08;;;5.05;77.91
50484;BME280;36409;52.168;20.878;2023-04-02T02:56:45;99640.67;;;5.05;77.97
50484;BME280;36409;52.168;20.878;2023-04-02T02:59:16;99652.73;;;5.06;78.00
50484;BME280;36409;52.168;20.878;2023-04-02T03:01:48;99644.98;;;5.06;78.08
50484;BME280;36409;52.168;20.878;2023-04-02T03:04:20;99649.29;;;5.04;77.29
50484;BME280;36409;52.168;20.878;2023-04-02T03:06:54;99660.50;;;5.03;77.54
50484;BME280;36409;52.168;20.878;2023-04-02T03:09:35;99659.62;;;5.03;77.99
50484;BME280;36409;52.168;20.878;2023-04-02T03:12:33;99663.09;;;5.00;77.84
50484;BME280;36409;52.168;20.878;2023-04-02T03:15:13;99666.55;;;5.01;77.52
50484;BME280;36409;52.168;20.878;2023-04-02T03:17:49;99676.90;;;5.01;77.93
50484;BME280;36409;52.168;20.878;2023-04-02T03:20:23;99676.02;;;5.00;77.93
50484;BME280;36409;52.168;20.878;2023-04-02T03:22:59;99672.56;;;4.98;77.59
50484;BME280;36409;52.168;20.878;2023-04-02T03:25:36;99682.91;;;4.98;78.02
50484;BME280;36409;52.168;20.878;2023-04-02T03:28:13;99684.66;;;4.98;77.28
50484;BME280;36409;52.168;20.878;2023-04-02T03:30:50;99688.09;;;4.98;77.80
50484;BME280;36409;52.168;20.878;2023-04-02T03:33:24;99694.13;;;5.00;78.06
50484;BME280;36409;52.168;20.878;2023-04-02T03:36:00;99693.28;;;5.00;77.67
50484;BME280;36409;52.168;20.878;2023-04-02T03:38:32;99701.02;;;4.98;77.90
50484;BME280;36409;52.168;20.878;2023-04-02T03:41:09;99703.63;;;4.97;77.15
50484;BME280;36409;52.168;20.878;2023-04-02T03:43:44;99707.93;;;4.94;77.47
50484;BME280;36409;52.168;20.878;2023-04-02T03:46:23;99709.67;;;4.94;77.58
50484;BME280;36409;52.168;20.878;2023-04-02T03:49:02;99714.83;;;4.92;77.91
50484;BME280;36409;52.168;20.878;2023-04-02T03:51:38;99713.98;;;4.92;77.98
50484;BME280;36409;52.168;20.878;2023-04-02T03:54:12;99714.84;;;4.91;77.56
50484;BME280;36409;52.168;20.878;2023-04-02T03:56:44;99720.88;;;4.90;77.54
50484;BME280;36409;52.168;20.878;2023-04-02T03:59:30;99721.72;;;4.90;77.99
50484;BME280;36409;52.168;20.878;2023-04-02T04:02:10;99719.15;;;4.89;77.86
50484;BME280;36409;52.168;20.878;2023-04-02T04:04:47;99723.45;;;4.87;77.82
50484;BME280;36409;52.168;20.878;2023-04-02T04:07:21;99728.64;;;4.85;77.86
50484;BME280;36409;52.168;20.878;2023-04-02T04:09:51;99736.41;;;4.84;78.06
50484;BME280;36409;52.168;20.878;2023-04-02T04:12:27;99737.27;;;4.83;77.87
50484;BME280;36409;52.168;20.878;2023-04-02T04:15:03;99747.59;;;4.81;78.16
50484;BME280;36409;52.168;20.878;2023-04-02T04:17:43;99742.44;;;4.79;77.56
50484;BME280;36409;52.168;20.878;2023-04-02T04:20:20;99751.06;;;4.77;78.21
50484;BME280;36409;52.168;20.878;2023-04-02T04:22:52;99753.66;;;4.77;77.75
50484;BME280;36409;52.168;20.878;2023-04-02T04:25:27;99746.73;;;4.74;77.73
50484;BME280;36409;52.168;20.878;2023-04-02T04:28:05;99751.05;;;4.74;77.85
50484;BME280;36409;52.168;20.878;2023-04-02T04:30:50;99754.52;;;4.71;77.59
50484;BME280;36409;52.168;20.878;2023-04-02T04:33:23;99767.42;;;4.65;77.63
50484;BME280;36409;52.168;20.878;2023-04-02T04:35:59;99769.16;;;4.60;77.74
50484;BME280;36409;52.168;20.878;2023-04-02T04:38:35;99773.44;;;4.56;77.83
50484;BME280;36409;52.168;20.878;2023-04-02T04:41:13;99775.16;;;4.53;78.23
50484;BME280;36409;52.168;20.878;2023-04-02T04:43:46;99780.35;;;4.50;77.61
50484;BME280;36409;52.168;20.878;2023-04-02T04:46:19;99776.90;;;4.47;78.45
50484;BME280;36409;52.168;20.878;2023-04-02T04:48:55;99777.75;;;4.46;78.45
50484;BME280;36409;52.168;20.878;2023-04-02T04:51:32;99786.37;;;4.45;77.98
50484;BME280;36409;52.168;20.878;2023-04-02T04:54:03;99789.80;;;4.44;78.12
50484;BME280;36409;52.168;20.878;2023-04-02T04:56:36;99793.23;;;4.45;78.67
50484;BME280;36409;52.168;20.878;2023-04-02T04:59:16;99794.13;;;4.44;77.88
50484;BME280;36409;52.168;20.878;2023-04-02T05:01:51;99802.73;;;4.44;78.70
50484;BME280;36409;52.168;20.878;2023-04-02T05:04:27;99807.04;;;4.45;78.49
50484;BME280;36409;52.168;20.878;2023-04-02T05:07:03;99802.73;;;4.44;78.15
50484;BME280;36409;52.168;20.878;2023-04-02T05:09:37;99814.80;;;4.44;78.20
50484;BME280;36409;52.168;20.878;2023-04-02T05:12:15;99822.53;;;4.42;78.58
50484;BME280;36409;52.168;20.878;2023-04-02T05:14:55;99821.67;;;4.43;77.85
50484;BME280;36409;52.168;20.878;2023-04-02T05:17:29;99821.69;;;4.42;78.64
50484;BME280;36409;52.168;20.878;2023-04-02T05:20:04;99824.25;;;4.39;78.05
50484;BME280;36409;52.168;20.878;2023-04-02T05:22:44;99822.53;;;4.38;78.64
50484;BME280;36409;52.168;20.878;2023-04-02T05:25:20;99829.43;;;4.37;78.24
50484;BME280;36409;52.168;20.878;2023-04-02T05:27:55;99824.27;;;4.37;78.36
50484;BME280;36409;52.168;20.878;2023-04-02T05:30:52;99830.28;;;4.36;78.51
50484;BME280;36409;52.168;20.878;2023-04-02T05:33:26;99832.00;;;4.34;77.82
50484;BME280;36409;52.168;20.878;2023-04-02T05:36:00;99835.44;;;4.31;77.77
50484;BME280;36409;52.168;20.878;2023-04-02T05:38:33;99838.02;;;4.28;77.68
50484;BME280;36409;52.168;20.878;2023-04-02T05:41:06;99844.03;;;4.27;78.33
50484;BME280;36409;52.168;20.878;2023-04-02T05:43:44;99843.16;;;4.24;78.00
50484;BME280;36409;52.168;20.878;2023-04-02T05:46:17;99848.34;;;4.22;78.08
50484;BME280;36409;52.168;20.878;2023-04-02T05:48:51;99849.20;;;4.21;78.29
50484;BME280;36409;52.168;20.878;2023-04-02T05:51:35;99852.62;;;4.22;78.63
50484;BME280;36409;52.168;20.878;2023-04-02T05:54:15;99845.73;;;4.21;77.73
50484;BME280;36409;52.168;20.878;2023-04-02T05:56:56;99849.20;;;4.21;78.53
50484;BME280;36409;52.168;20.878;2023-04-02T05:59:32;99860.40;;;4.25;78.11
50484;BME280;36409;52.168;20.878;2023-04-02T06:02:15;99862.97;;;4.26;78.29
50484;BME280;36409;52.168;20.878;2023-04-02T06:04:51;99872.45;;;4.29;78.32
50484;BME280;36409;52.168;20.878;2023-04-02T06:07:28;99887.13;;;4.31;77.70
50484;BME280;36409;52.168;20.878;2023-04-02T06:10:04;99887.13;;;4.31;78.51
50484;BME280;36409;52.168;20.878;2023-04-02T06:12:42;99887.11;;;4.35;77.62
50484;BME280;36409;52.168;20.878;2023-04-02T06:15:15;99893.16;;;4.37;77.96
50484;BME280;36409;52.168;20.878;2023-04-02T06:17:48;99900.06;;;4.36;78.24
50484;BME280;36409;52.168;20.878;2023-04-02T06:20:20;99893.18;;;4.38;77.48
50484;BME280;36409;52.168;20.878;2023-04-02T06:22:51;99894.03;;;4.39;77.41
50484;BME280;36409;52.168;20.878;2023-04-02T06:25:23;99901.78;;;4.39;78.20
50484;BME280;36409;52.168;20.878;2023-04-02T06:27:57;99906.95;;;4.40;77.91
50484;BME280;36409;52.168;20.878;2023-04-02T06:30:31;99918.16;;;4.41;77.93
50484;BME280;36409;52.168;20.878;2023-04-02T06:33:02;99918.14;;;4.39;77.21
50484;BME280;36409;52.168;20.878;2023-04-02T06:35:36;99921.58;;;4.37;77.55
50484;BME280;36409;52.168;20.878;2023-04-02T06:38:10;99927.61;;;4.34;77.08
50484;BME280;36409;52.168;20.878;2023-04-02T06:40:45;99937.91;;;4.28;77.06
50484;BME280;36409;52.168;20.878;2023-04-02T06:43:35;99937.91;;;4.28;77.69
50484;BME280;36409;52.168;20.878;2023-04-02T06:46:24;99950.81;;;4.28;77.96
50484;BME280;36409;52.168;20.878;2023-04-02T06:49:28;99943.06;;;4.28;77.56
50484;BME280;36409;52.168;20.878;2023-04-02T06:52:05;99947.39;;;4.27;76.87
50484;BME280;36409;52.168;20.878;2023-04-02T06:54:41;99950.81;;;4.28;77.05
50484;BME280;36409;52.168;20.878;2023-04-02T06:57:14;99955.13;;;4.29;77.57
50484;BME280;36409;52.168;20.878;2023-04-02T06:59:53;99953.41;;;4.28;77.06
50484;BME280;36409;52.168;20.878;2023-04-02T07:02:31;99952.53;;;4.23;77.46
50484;BME280;36409;52.168;20.878;2023-04-02T07:05:07;99957.69;;;4.16;77.01
50484;BME280;36409;52.168;20.878;2023-04-02T07:07:44;99956.78;;;4.10;76.84
50484;BME280;36409;52.168;20.878;2023-04-02T07:10:14;99955.02;;;4.07;77.54
50484;BME280;36409;52.168;20.878;2023-04-02T07:12:48;99961.04;;;4.06;77.12
50484;BME280;36409;52.168;20.878;2023-04-02T07:15:18;99966.20;;;4.06;77.01
50484;BME280;36409;52.168;20.878;2023-04-02T07:17:48;99972.25;;;4.05;77.18
50484;BME280;36409;52.168;20.878;2023-04-02T07:20:34;99980.83;;;4.02;77.60
50484;BME280;36409;52.168;20.878;2023-04-02T07:23:07;99981.68;;;4.00;77.50
50484;BME280;36409;52.168;20.878;2023-04-02T07:25:37;99985.11;;;3.99;76.70
50484;BME280;36409;52.168;20.878;2023-04-02T07:28:06;99981.68;;;4.00;76.94
50484;BME280;36409;52.168;20.878;2023-04-02T07:30:40;99979.95;;;3.99;76.73
50484;BME280;36409;52.168;20.878;2023-04-02T07:33:12;99993.74;;;3.99;76.79
50484;BME280;36409;52.168;20.878;2023-04-02T07:35:42;99993.69;;;3.93;77.05
50484;BME280;36409;52.168;20.878;2023-04-02T07:38:12;99998.85;;;3.92;76.74
50484;BME280;36409;52.168;20.878;2023-04-02T07:40:43;100004.02;;;3.93;76.60
50484;BME280;36409;52.168;20.878;2023-04-02T07:43:13;100006.63;;;3.96;77.49
50484;BME280;36409;52.168;20.878;2023-04-02T07:45:42;100005.78;;;3.97;77.42
50484;BME280;36409;52.168;20.878;2023-04-02T07:48:13;100004.92;;;4.00;77.47
50484;BME280;36409;52.168;20.878;2023-04-02T07:50:42;100008.39;;;4.02;76.92
50484;BME280;36409;52.168;20.878;2023-04-02T07:53:26;100012.67;;;4.01;77.15
50484;BME280;36409;52.168;20.878;2023-04-02T07:55:59;100024.73;;;4.01;77.04
50484;BME280;36409;52.168;20.878;2023-04-02T07:58:33;100025.59;;;4.00;77.05
50484;BME280;36409;52.168;20.878;2023-04-02T08:01:02;100029.91;;;3.99;76.48
50484;BME280;36409;52.168;20.878;2023-04-02T08:03:31;100035.03;;;3.98;77.12
50484;BME280;36409;52.168;20.878;2023-04-02T08:06:01;100037.62;;;3.98;76.86
50484;BME280;36409;52.168;20.878;2023-04-02T08:08:30;100036.73;;;3.96;76.76
50484;BME280;36409;52.168;20.878;2023-04-02T08:10:59;100036.73;;;3.96;76.79
50484;BME280;36409;52.168;20.878;2023-04-02T08:13:29;100046.22;;;3.97;76.63
50484;BME280;36409;52.168;20.878;2023-04-02T08:16:00;100052.27;;;3.99;77.08
50484;BME280;36409;52.168;20.878;2023-04-02T08:18:29;100051.41;;;4.00;77.36
50484;BME280;36409;52.168;20.878;2023-04-02T08:20:59;100058.31;;;3.99;76.84
50484;BME280;36409;52.168;20.878;2023-04-02T08:23:31;100054.84;;;3.97;76.50
50484;BME280;36409;52.168;20.878;2023-04-02T08:26:00;100069.46;;;3.97;76.89
50484;BME280;36409;52.168;20.878;2023-04-02T08:28:29;100074.66;;;3.98;76.94
50484;BME280;36409;52.168;20.878;2023-04-02T08:31:00;100088.42;;;3.97;76.56
50484;BME280;36409;52.168;20.878;2023-04-02T08:33:32;100094.41;;;3.93;77.16
50484;BME280;36409;52.168;20.878;2023-04-02T08:36:03;100105.58;;;3.91;76.84
50484;BME280;36409;52.168;20.878;2023-04-02T08:38:36;100098.69;;;3.91;76.56
50484;BME280;36409;52.168;20.878;2023-04-02T08:41:05;100098.69;;;3.91;77.40
50484;BME280;36409;52.168;20.878;2023-04-02T08:43:51;100100.38;;;3.89;76.86
50484;BME280;36409;52.168;20.878;2023-04-02T08:46:25;100102.11;;;3.89;76.50
50484;BME280;36409;52.168;20.878;2023-04-02T08:49:01;100108.13;;;3.88;76.64
50484;BME280;36409;52.168;20.878;2023-04-02T08:51:34;100112.41;;;3.84;76.80
50484;BME280;36409;52.168;20.878;2023-04-02T08:54:08;100119.27;;;3.80;76.86
50484;BME280;36409;52.168;20.878;2023-04-02T08:56:45;100123.50;;;3.75;77.00
50484;BME280;36409;52.168;20.878;2023-04-02T08:59:23;100126.92;;;3.71;77.12
50484;BME280;36409;52.168;20.878;2023-04-02T09:02:05;100123.45;;;3.69;76.43
50484;BME280;36409;52.168;20.878;2023-04-02T09:04:50;100132.93;;;3.70;76.48
50484;BME280;36409;52.168;20.878;2023-04-02T09:07:20;100133.74;;;3.67;77.16
50484;BME280;36409;52.168;20.878;2023-04-02T09:09:52;100128.63;;;3.70;77.42
50484;BME280;36409;52.168;20.878;2023-04-02T09:12:26;100128.63;;;3.72;77.37
50484;BME280;36409;52.168;20.878;2023-04-02T09:15:04;100134.71;;;3.76;76.52
50484;BME280;36409;52.168;20.878;2023-04-02T09:17:33;100127.01;;;3.82;77.44
50484;BME280;36409;52.168;20.878;2023-04-02T09:20:23;100126.20;;;3.89;76.60
50484;BME280;36409;52.168;20.878;2023-04-02T09:22:53;100139.19;;;3.94;77.17
50484;BME280;36409;52.168;20.878;2023-04-02T09:25:26;100139.20;;;3.97;76.59
50484;BME280;36409;52.168;20.878;2023-04-02T09:27:57;100135.80;;;4.01;76.06
50484;BME280;36409;52.168;20.878;2023-04-02T09:30:51;100137.57;;;4.05;77.31
50484;BME280;36409;52.168;20.878;2023-04-02T09:33:41;100141.89;;;4.08;76.48
50484;BME280;36409;52.168;20.878;2023-04-02T09:36:29;100151.38;;;4.12;76.44
50484;BME280;36409;52.168;20.878;2023-04-02T09:39:02;100152.26;;;4.12;77.10
50484;BME280;36409;52.168;20.878;2023-04-02T09:41:39;100147.94;;;4.11;76.30
50484;BME280;36409;52.168;20.878;2023-04-02T09:44:19;100153.14;;;4.16;76.57
50484;BME280;36409;52.168;20.878;2023-04-02T09:47:22;100156.65;;;4.23;77.04
50484;BME280;36409;52.168;20.878;2023-04-02T09:50:21;100165.29;;;4.28;77.12
50484;BME280;36409;52.168;20.878;2023-04-02T09:52:58;100164.47;;;4.32;76.38
50484;BME280;36409;52.168;20.878;2023-04-02T09:55:32;100172.26;;;4.35;76.78
50484;BME280;36409;52.168;20.878;2023-04-02T09:58:21;100177.42;;;4.35;76.26
50484;BME280;36409;52.168;20.878;2023-04-02T10:00:53;100178.28;;;4.34;76.65
50484;BME280;36409;52.168;20.878;2023-04-02T10:03:28;100182.53;;;4.29;76.35
50484;BME280;36409;52.168;20.878;2023-04-02T10:06:09;100179.09;;;4.27;76.23
50484;BME280;36409;52.168;20.878;2023-04-02T10:08:45;100185.11;;;4.26;77.03
50484;BME280;36409;52.168;20.878;2023-04-02T10:11:20;100181.64;;;4.24;76.86
50484;BME280;36409;52.168;20.878;2023-04-02T10:14:02;100177.36;;;4.26;76.20
50484;BME280;36409;52.168;20.878;2023-04-02T10:16:48;100193.78;;;4.32;76.45
50484;BME280;36409;52.168;20.878;2023-04-02T10:19:25;100194.67;;;4.38;76.84
50484;BME280;36409;52.168;20.878;2023-04-02T10:21:59;100193.82;;;4.40;76.64
50484;BME280;36409;52.168;20.878;2023-04-02T10:24:32;100204.16;;;4.40;76.90
50484;BME280;36409;52.168;20.878;2023-04-02T10:27:12;100205.86;;;4.37;76.73
50484;BME280;36409;52.168;20.878;2023-04-02T10:30:14;100218.73;;;4.30;77.01
50484;BME280;36409;52.168;20.878;2023-04-02T10:32:53;100216.16;;;4.32;76.24
50484;BME280;36409;52.168;20.878;2023-04-02T10:35:37;100223.91;;;4.32;76.67
50484;BME280;36409;52.168;20.878;2023-04-02T10:38:42;100222.09;;;4.23;76.72
50484;BME280;36409;52.168;20.878;2023-04-02T10:41:27;100234.97;;;4.17;76.85
50484;BME280;36409;52.168;20.878;2023-04-02T10:44:07;100238.36;;;4.13;76.13
50484;BME280;36409;52.168;20.878;2023-04-02T10:46:55;100241.80;;;4.10;76.31
50484;BME280;36409;52.168;20.878;2023-04-02T10:49:43;100241.80;;;4.10;76.98
50484;BME280;36409;52.168;20.878;2023-04-02T10:52:20;100240.05;;;4.08;76.48
50484;BME280;36409;52.168;20.878;2023-04-02T10:54:58;100254.66;;;4.06;76.99
50484;BME280;36409;52.168;20.878;2023-04-02T10:57:36;100258.09;;;4.05;76.50
50484;BME280;36409;52.168;20.878;2023-04-02T11:00:18;100262.36;;;3.99;76.65
50484;BME280;36409;52.168;20.878;2023-04-02T11:02:55;100262.27;;;3.93;76.40
50484;BME280;36409;52.168;20.878;2023-04-02T11:05:33;100267.44;;;3.92;76.66
50484;BME280;36409;52.168;20.878;2023-04-02T11:08:17;100265.66;;;3.88;77.29
50484;BME280;36409;52.168;20.878;2023-04-02T11:10:55;100270.77;;;3.84;77.17
50484;BME280;36409;52.168;20.878;2023-04-02T11:13:29;100277.66;;;3.82;77.54
50484;BME280;36409;52.168;20.878;2023-04-02T11:15:59;100275.89;;;3.80;77.51
50484;BME280;36409;52.168;20.878;2023-04-02T11:18:31;100293.06;;;3.76;77.45
50484;BME280;36409;52.168;20.878;2023-04-02T11:21:06;100295.58;;;3.70;77.43
50484;BME280;36409;52.168;20.878;2023-04-02T11:23:54;100299.84;;;3.68;77.52
50484;BME280;36409;52.168;20.878;2023-04-02T11:26:38;100300.70;;;3.67;77.37
50484;BME280;36409;52.168;20.878;2023-04-02T11:29:20;100296.38;;;3.66;77.70
50484;BME280;36409;52.168;20.878;2023-04-02T11:32:25;100305.81;;;3.64;77.70
50484;BME280;36409;52.168;20.878;2023-04-02T11:35:25;100307.48;;;3.60;77.09
50484;BME280;36409;52.168;20.878;2023-04-02T11:37:55;100310.07;;;3.60;77.13
50484;BME280;36409;52.168;20.878;2023-04-02T11:40:46;100320.39;;;3.59;77.80
50484;BME280;36409;52.168;20.878;2023-04-02T11:43:59;100329.78;;;3.55;77.52
50484;BME280;36409;52.168;20.878;2023-04-02T11:46:42;100336.61;;;3.51;77.66
50484;BME280;36409;52.168;20.878;2023-04-02T11:49:55;100336.59;;;3.48;77.98
50484;BME280;36409;52.168;20.878;2023-04-02T11:52:29;100341.72;;;3.47;78.04
50484;BME280;36409;52.168;20.878;2023-04-02T11:55:25;100335.72;;;3.49;77.09
50484;BME280;36409;52.168;20.878;2023-04-02T12:04:37;100346.09;;;3.52;78.12
50484;BME280;36409;52.168;20.878;2023-04-02T12:10:20;100351.38;;;3.60;78.19
50484;BME280;36409;52.168;20.878;2023-04-02T12:12:50;100360.13;;;3.70;77.96
50484;BME280;36409;52.168;20.878;2023-04-02T12:15:36;100360.20;;;3.76;77.77
50484;BME280;36409;52.168;20.878;2023-04-02T12:18:14;100363.67;;;3.80;77.69
50484;BME280;36409;52.168;20.878;2023-04-02T12:20:50;100360.30;;;3.82;78.11
50484;BME280;36409;52.168;20.878;2023-04-02T12:23:21;100372.33;;;3.83;78.00
50484;BME280;36409;52.168;20.878;2023-04-02T12:25:57;100365.52;;;3.89;77.90
50484;BME280;36409;52.168;20.878;2023-04-02T12:28:27;100364.73;;;3.93;78.21
50484;BME280;36409;52.168;20.878;2023-04-02T12:31:10;100363.84;;;3.92;77.57
50484;BME280;36409;52.168;20.878;2023-04-02T12:33:40;100368.16;;;3.92;77.49
50484;BME280;36409;52.168;20.878;2023-04-02T12:36:19;100370.70;;;3.90;77.34
50484;BME280;36409;52.168;20.878;2023-04-02T12:38:51;100376.70;;;3.88;77.32
50484;BME280;36409;52.168;20.878;2023-04-02T12:41:23;100379.28;;;3.88;77.36
50484;BME280;36409;52.168;20.878;2023-04-02T12:43:58;100377.59;;;3.88;78.02
50484;BME280;36409;52.168;20.878;2023-04-02T12:46:38;100382.70;;;3.86;77.37
50484;BME280;36409;52.168;20.878;2023-04-02T12:49:22;100396.41;;;3.81;77.67
50484;BME280;36409;52.168;20.878;2023-04-02T12:51:53;100400.61;;;3.74;77.98
50484;BME280;36409;52.168;20.878;2023-04-02T12:54:26;100406.61;;;3.71;77.64
50484;BME280;36409;52.168;20.878;2023-04-02T13:00:30;100410.94;;;3.74;78.29
50484;BME280;36409;52.168;20.878;2023-04-02T13:03:08;100413.52;;;3.74;78.04
50484;BME280;36409;52.168;20.878;2023-04-02T13:05:48;100408.36;;;3.74;77.65
50484;BME280;36409;52.168;20.878;2023-04-02T13:08:28;100410.09;;;3.75;77.91
50484;BME280;36409;52.168;20.878;2023-04-02T13:11:03;100419.58;;;3.76;78.09
50484;BME280;36409;52.168;20.878;2023-04-02T13:13:34;100415.32;;;3.80;77.87
50484;BME280;36409;52.168;20.878;2023-04-02T13:16:20;100411.06;;;3.83;78.33
50484;BME280;36409;52.168;20.878;2023-04-02T13:19:19;100413.64;;;3.83;78.16
50484;BME280;36409;52.168;20.878;2023-04-02T13:21:51;100422.28;;;3.84;77.53
50484;BME280;36409;52.168;20.878;2023-04-02T13:24:22;100414.52;;;3.82;78.17
50484;BME280;36409;52.168;20.878;2023-04-02T13:26:56;100422.27;;;3.82;78.32
50484;BME280;36409;52.168;20.878;2023-04-02T13:29:32;100423.98;;;3.83;77.71
50484;BME280;36409;52.168;20.878;2023-04-02T13:32:04;100434.30;;;3.82;78.47
50484;BME280;36409;52.168;20.878;2023-04-02T13:34:33;100429.14;;;3.83;78.38
50484;BME280;36409;52.168;20.878;2023-04-02T13:37:02;100431.83;;;3.90;77.94
50484;BME280;36409;52.168;20.878;2023-04-02T13:39:34;100429.36;;;3.97;77.60
50484;BME280;36409;52.168;20.878;2023-04-02T13:42:04;100437.22;;;4.05;77.70
50484;BME280;36409;52.168;20.878;2023-04-02T13:44:37;100438.91;;;4.03;78.12
50484;BME280;36409;52.168;20.878;2023-04-02T13:47:13;100434.52;;;3.97;77.49
50484;BME280;36409;52.168;20.878;2023-04-02T13:49:42;100440.47;;;3.92;78.11
50484;BME280;36409;52.168;20.878;2023-04-02T13:52:14;100443.02;;;3.90;78.07
50484;BME280;36409;52.168;20.878;2023-04-02T13:54:48;100449.08;;;3.92;78.24
50484;BME280;36409;52.168;20.878;2023-04-02T13:57:22;100444.80;;;3.94;77.64
50484;BME280;36409;52.168;20.878;2023-04-02T13:59:54;100447.39;;;3.96;78.29
50484;BME280;36409;52.168;20.878;2023-04-02T14:02:24;100445.70;;;3.96;78.39
50484;BME280;36409;52.168;20.878;2023-04-02T14:05:03;100451.77;;;3.98;77.84
50484;BME280;36409;52.168;20.878;2023-04-02T14:07:54;100459.45;;;3.95;77.96
50484;BME280;36409;52.168;20.878;2023-04-02T14:10:36;100466.23;;;3.87;78.12
50484;BME280;36409;52.168;20.878;2023-04-02T14:13:20;100476.45;;;3.81;78.11
50484;BME280;36409;52.168;20.878;2023-04-02T14:16:07;100478.07;;;3.74;77.36
50484;BME280;36409;52.168;20.878;2023-04-02T14:19:01;100485.69;;;3.66;77.44
50484;BME280;36409;52.168;20.878;2023-04-02T14:21:46;100483.03;;;3.62;77.94
50484;BME280;36409;52.168;20.878;2023-04-02T14:24:19;100494.20;;;3.61;77.65
50484;BME280;36409;52.168;20.878;2023-04-02T14:27:04;100499.36;;;3.59;77.49
50484;BME280;36409;52.168;20.878;2023-04-02T14:29:51;100496.69;;;3.53;77.83
50484;BME280;36409;52.168;20.878;2023-04-02T14:32:27;100497.41;;;3.46;78.31
50484;BME280;36409;52.168;20.878;2023-04-02T14:35:06;100504.16;;;3.37;77.28
50484;BME280;36409;52.168;20.878;2023-04-02T14:37:51;100504.00;;;3.28;77.58
50484;BME280;36409;52.168;20.878;2023-04-02T14:40:28;100508.19;;;3.23;77.67
50484;BME280;36409;52.168;20.878;2023-04-02T14:43:01;100513.32;;;3.20;78.47
50484;BME280;36409;52.168;20.878;2023-04-02T14:45:43;100516.69;;;3.17;78.08
50484;BME280;36409;52.168;20.878;2023-04-02T14:48:25;100509.75;;;3.13;77.53
50484;BME280;36409;52.168;20.878;2023-04-02T14:51:01;100526.00;;;3.09;78.12
50484;BME280;36409;52.168;20.878;2023-04-02T14:53:39;100519.09;;;3.06;78.56
50484;BME280;36409;52.168;20.878;2023-04-02T14:56:17;100517.27;;;3.02;77.74
50484;BME280;36409;52.168;20.878;2023-04-02T14:58:48;100521.52;;;2.99;77.90
50484;BME280;36409;52.168;20.878;2023-04-02T15:01:24;100526.59;;;2.96;78.68
50484;BME280;36409;52.168;20.878;2023-04-02T15:03:57;100534.30;;;2.92;77.78
50484;BME280;36409;52.168;20.878;2023-04-02T15:06:34;100534.18;;;2.88;78.49
50484;BME280;36409;52.168;20.878;2023-04-02T15:09:12;100535.81;;;2.83;78.14
50484;BME280;36409;52.168;20.878;2023-04-02T15:11:46;100545.20;;;2.79;78.29
50484;BME280;36409;52.168;20.878;2023-04-02T15:14:20;100545.95;;;2.73;78.50
50484;BME280;36409;52.168;20.878;2023-04-02T15:16:58;100551.03;;;2.70;77.90
50484;BME280;36409;52.168;20.878;2023-04-02T15:19:27;100557.00;;;2.68;78.24
50484;BME280;36409;52.168;20.878;2023-04-02T15:22:21;100562.98;;;2.67;78.44